Time;durP1;ratioP1;P1;durP2;ratioP2;P2;SDS_P1;SDS_P2;PMS_P1;PMS_P2;Temp;Humidity;BMP_temperature;BMP_pressure;BME280_temperature;BME280_humidity;BME280_pressure;Samples;Min_cycle;Max_cycle;Signal;HPM_P1;HPM_P2
2022/08/10 00:00:39;;;;;;;;;;;19.20;99.90;;;;;;5022879;28;19937;-65
2022/08/10 00:03:08;;;;;;;;;;;19.20;99.90;;;;;;5020615;28;19972;-65
2022/08/10 00:05:36;;;;;;;;;;;19.10;99.90;;;;;;5019949;28;19932;-65
2022/08/10 00:08:03;;;;;;;;;;;19.10;99.90;;;;;;5021873;28;20028;-66
2022/08/10 00:10:30;;;;;;;;;;;19.10;99.90;;;;;;5020968;28;20550;-65
2022/08/10 00:12:57;;;;;;;;;;;19.00;99.90;;;;;;5021034;28;19929;-66
2022/08/10 00:15:24;;;;;;;;;;;19.00;99.90;;;;;;5018200;28;19935;-65
2022/08/10 00:17:50;;;;;;;;;;;19.00;99.90;;;;;;5021891;28;19926;-65
2022/08/10 00:20:17;;;;;;;;;;;18.90;99.90;;;;;;5021331;28;20307;-66
2022/08/10 00:22:45;;;;;;;;;;;18.90;99.90;;;;;;5020681;28;20020;-66
2022/08/10 00:25:12;;;;;;;;;;;18.90;99.90;;;;;;5021689;28;20015;-66
2022/08/10 00:27:38;;;;;;;;;;;18.80;99.90;;;;;;5025140;28;20004;-65
2022/08/10 00:30:06;;;;;;;;;;;18.80;99.90;;;;;;5021079;28;20008;-65
2022/08/10 00:32:32;;;;;;;;;;;18.80;99.90;;;;;;5026118;28;20450;-66
2022/08/10 00:34:59;;;;;;;;;;;18.80;99.90;;;;;;5023368;28;21945;-65
2022/08/10 00:37:26;;;;;;;;;;;18.70;99.90;;;;;;5020254;28;19925;-65
2022/08/10 00:39:55;;;;;;;;;;;18.70;99.90;;;;;;5021063;28;20458;-65
2022/08/10 00:42:21;;;;;;;;;;;18.70;99.90;;;;;;5020954;28;19933;-65
2022/08/10 00:44:49;;;;;;;;;;;18.70;99.90;;;;;;5019481;28;19987;-66
2022/08/10 00:47:16;;;;;;;;;;;18.60;99.90;;;;;;5020604;28;20334;-65
2022/08/10 00:49:43;;;;;;;;;;;18.60;99.90;;;;;;5020256;28;20015;-66
2022/08/10 00:52:11;;;;;;;;;;;18.50;99.90;;;;;;5023527;28;20744;-65
2022/08/10 00:54:38;;;;;;;;;;;18.50;99.90;;;;;;5022534;28;20027;-65
2022/08/10 00:57:06;;;;;;;;;;;18.50;99.90;;;;;;5020181;28;19940;-66
2022/08/10 00:59:33;;;;;;;;;;;18.50;99.90;;;;;;5022368;28;20023;-65
2022/08/10 01:02:01;;;;;;;;;;;18.50;99.90;;;;;;5019518;28;19925;-65
2022/08/10 01:04:27;;;;;;;;;;;18.40;99.90;;;;;;5017778;28;19925;-66
2022/08/10 01:07:01;;;;;;;;;;;18.40;99.90;;;;;;5020907;28;20676;-66
2022/08/10 01:09:32;;;;;;;;;;;18.40;99.90;;;;;;5020516;28;19929;-66
2022/08/10 01:12:02;;;;;;;;;;;18.40;99.90;;;;;;5025112;28;19932;-67
2022/08/10 01:14:45;;;;;;;;;;;18.30;99.90;;;;;;5023360;28;20016;-65
2022/08/10 01:17:16;;;;;;;;;;;18.30;99.90;;;;;;5019844;28;19933;-65
2022/08/10 01:19:53;;;;;;;;;;;18.20;99.90;;;;;;5020692;28;20024;-65
2022/08/10 01:22:34;;;;;;;;;;;18.20;99.90;;;;;;5019450;28;20012;-65
2022/08/10 01:25:14;;;;;;;;;;;18.20;99.90;;;;;;4991337;28;20410;-65
2022/08/10 01:27:45;;;;;;;;;;;18.20;99.90;;;;;;5021947;28;19925;-65
2022/08/10 01:30:14;;;;;;;;;;;18.20;99.90;;;;;;5020778;28;20395;-66
2022/08/10 01:32:42;;;;;;;;;;;18.20;99.90;;;;;;5018349;28;19925;-66
2022/08/10 01:35:14;;;;;;;;;;;18.10;99.90;;;;;;5026759;28;19925;-64
2022/08/10 01:37:45;;;;;;;;;;;18.10;99.90;;;;;;5024015;28;19932;-66
2022/08/10 01:40:13;;;;;;;;;;;18.10;99.90;;;;;;5018925;28;19925;-66
2022/08/10 01:42:42;;;;;;;;;;;18.10;99.90;;;;;;5019633;28;19929;-66
2022/08/10 01:45:10;;;;;;;;;;;17.90;99.90;;;;;;5020082;28;19931;-66
2022/08/10 01:50:27;;;;;;;;;;;17.90;99.90;;;;;;5025789;28;19931;-66
2022/08/10 01:52:56;;;;;;;;;;;17.80;99.90;;;;;;5025249;28;19925;-66
2022/08/10 01:55:24;;;;;;;;;;;17.80;99.90;;;;;;5016954;28;20031;-66
2022/08/10 01:57:52;;;;;;;;;;;17.70;99.90;;;;;;5020930;28;19925;-66
2022/08/10 02:00:19;;;;;;;;;;;17.70;99.90;;;;;;5021706;28;20008;-66
2022/08/10 02:02:49;;;;;;;;;;;17.70;99.90;;;;;;5021369;28;20011;-66
2022/08/10 02:05:16;;;;;;;;;;;17.60;99.90;;;;;;5018211;28;20036;-66
2022/08/10 02:07:43;;;;;;;;;;;17.60;99.90;;;;;;5017635;28;19932;-66
2022/08/10 02:10:11;;;;;;;;;;;17.50;99.90;;;;;;5021598;28;19929;-66
2022/08/10 02:12:39;;;;;;;;;;;17.40;99.90;;;;;;5021102;28;19931;-66
2022/08/10 02:15:08;;;;;;;;;;;17.50;99.90;;;;;;5016588;28;19925;-66
2022/08/10 02:17:37;;;;;;;;;;;17.50;99.90;;;;;;5024124;28;19931;-66
2022/08/10 02:20:07;;;;;;;;;;;17.50;99.90;;;;;;5021738;28;19933;-66
2022/08/10 02:22:34;;;;;;;;;;;17.40;99.90;;;;;;5022831;28;20016;-66
2022/08/10 02:25:01;;;;;;;;;;;17.40;99.90;;;;;;5023907;28;19925;-66
2022/08/10 02:27:29;;;;;;;;;;;17.40;99.90;;;;;;5024066;28;20398;-66
2022/08/10 02:29:55;;;;;;;;;;;17.40;99.90;;;;;;5024513;28;20016;-66
2022/08/10 02:32:23;;;;;;;;;;;17.40;99.90;;;;;;5025199;28;19925;-66
2022/08/10 02:34:51;;;;;;;;;;;17.40;99.90;;;;;;5023707;28;20475;-66
2022/08/10 02:37:21;;;;;;;;;;;17.30;99.90;;;;;;5029287;28;20023;-66
2022/08/10 02:39:48;;;;;;;;;;;17.30;99.90;;;;;;5025557;28;20024;-66
2022/08/10 02:42:19;;;;;;;;;;;17.30;99.90;;;;;;5024401;28;20214;-66
2022/08/10 02:44:48;;;;;;;;;;;17.30;99.90;;;;;;5024141;28;20028;-66
2022/08/10 02:47:20;;;;;;;;;;;17.30;99.90;;;;;;5024000;28;19931;-66
2022/08/10 02:49:49;;;;;;;;;;;17.30;99.90;;;;;;5019770;28;20268;-66
2022/08/10 02:52:17;;;;;;;;;;;17.20;99.90;;;;;;5024669;28;20019;-66
2022/08/10 02:54:48;;;;;;;;;;;17.20;99.90;;;;;;5021750;28;19940;-66
2022/08/10 02:57:18;;;;;;;;;;;17.20;99.90;;;;;;5022186;28;19937;-66
2022/08/10 02:59:48;;;;;;;;;;;17.20;99.90;;;;;;5025323;28;19929;-66
2022/08/10 03:02:16;;;;;;;;;;;17.10;99.90;;;;;;5023106;28;20454;-65
2022/08/10 03:04:44;;;;;;;;;;;17.00;99.90;;;;;;5020551;28;19933;-66
2022/08/10 03:07:12;;;;;;;;;;;17.00;99.90;;;;;;5022554;28;20036;-66
2022/08/10 03:09:40;;;;;;;;;;;17.00;99.90;;;;;;5024690;28;19968;-65
2022/08/10 03:12:11;;;;;;;;;;;17.00;99.90;;;;;;5022441;28;19929;-66
2022/08/10 03:14:38;;;;;;;;;;;16.90;99.90;;;;;;5027153;28;19931;-66
2022/08/10 03:17:05;;;;;;;;;;;16.90;99.90;;;;;;5025079;28;19937;-66
2022/08/10 03:19:33;;;;;;;;;;;16.80;99.90;;;;;;5022319;28;20291;-65
2022/08/10 03:22:00;;;;;;;;;;;16.80;99.90;;;;;;5022782;28;19925;-66
2022/08/10 03:24:27;;;;;;;;;;;16.80;99.90;;;;;;5021037;28;20023;-66
2022/08/10 03:26:54;;;;;;;;;;;16.80;99.90;;;;;;5024882;28;19941;-66
2022/08/10 03:29:23;;;;;;;;;;;16.80;99.90;;;;;;5021897;28;20300;-66
2022/08/10 03:31:50;;;;;;;;;;;16.70;99.90;;;;;;5028515;28;19932;-66
2022/08/10 03:34:18;;;;;;;;;;;16.70;99.90;;;;;;5027573;28;20012;-66
2022/08/10 03:36:45;;;;;;;;;;;16.70;99.90;;;;;;5024135;28;19937;-66
2022/08/10 03:39:13;;;;;;;;;;;16.60;99.90;;;;;;5019626;28;19929;-66
2022/08/10 03:41:42;;;;;;;;;;;16.60;99.90;;;;;;5024578;28;20035;-66
2022/08/10 03:44:10;;;;;;;;;;;16.60;99.90;;;;;;5021329;28;20391;-66
2022/08/10 03:46:40;;;;;;;;;;;16.60;99.90;;;;;;5024300;28;19968;-66
2022/08/10 03:49:07;;;;;;;;;;;16.50;99.90;;;;;;5022244;28;20376;-66
2022/08/10 03:51:34;;;;;;;;;;;16.50;99.90;;;;;;5021932;28;20396;-66
2022/08/10 03:54:01;;;;;;;;;;;16.50;99.90;;;;;;5022698;28;19955;-66
2022/08/10 03:56:28;;;;;;;;;;;16.50;99.90;;;;;;5022165;28;20024;-65
2022/08/10 03:58:55;;;;;;;;;;;16.50;99.90;;;;;;5021801;28;20394;-65
2022/08/10 04:01:22;;;;;;;;;;;16.40;99.90;;;;;;5020718;28;19947;-66
2022/08/10 04:03:50;;;;;;;;;;;16.40;99.90;;;;;;5023136;28;20404;-66
2022/08/10 04:06:17;;;;;;;;;;;16.30;99.90;;;;;;5022753;28;22212;-65
2022/08/10 04:08:44;;;;;;;;;;;16.30;99.90;;;;;;5022623;28;20016;-66
2022/08/10 04:11:11;;;;;;;;;;;16.30;99.90;;;;;;5021979;28;19929;-66
2022/08/10 04:13:38;;;;;;;;;;;16.30;99.90;;;;;;5023971;28;20303;-66
2022/08/10 04:16:05;;;;;;;;;;;16.20;99.90;;;;;;5023273;28;19944;-66
2022/08/10 04:18:32;;;;;;;;;;;16.20;99.90;;;;;;5024562;28;19967;-65
2022/08/10 04:21:02;;;;;;;;;;;16.20;99.90;;;;;;5021150;28;20346;-66
2022/08/10 04:23:31;;;;;;;;;;;16.10;99.90;;;;;;5025829;28;20020;-66
2022/08/10 04:25:58;;;;;;;;;;;16.10;99.90;;;;;;5023183;28;19951;-66
2022/08/10 04:28:25;;;;;;;;;;;16.10;99.90;;;;;;5022500;28;20010;-66
2022/08/10 04:30:53;;;;;;;;;;;16.10;99.90;;;;;;5024103;28;19925;-65
2022/08/10 04:33:21;;;;;;;;;;;16.10;99.90;;;;;;5022735;28;20376;-66
2022/08/10 04:35:48;;;;;;;;;;;16.10;99.90;;;;;;5019949;28;19933;-65
2022/08/10 04:38:17;;;;;;;;;;;16.00;99.90;;;;;;5020740;28;19944;-66
2022/08/10 04:40:46;;;;;;;;;;;16.00;99.90;;;;;;5020531;28;19934;-65
2022/08/10 04:43:13;;;;;;;;;;;16.00;99.90;;;;;;5020127;28;19947;-66
2022/08/10 04:45:40;;;;;;;;;;;15.90;99.90;;;;;;5021461;28;19929;-66
2022/08/10 04:48:07;;;;;;;;;;;15.90;99.90;;;;;;5019813;28;20012;-66
2022/08/10 04:50:34;;;;;;;;;;;15.90;99.90;;;;;;5020731;28;19932;-66
2022/08/10 04:53:00;;;;;;;;;;;15.90;99.90;;;;;;5020314;28;20515;-65
2022/08/10 04:55:29;;;;;;;;;;;15.90;99.90;;;;;;5022274;28;20027;-66
2022/08/10 04:57:55;;;;;;;;;;;15.90;99.90;;;;;;5024540;28;20020;-66
2022/08/10 05:00:22;;;;;;;;;;;15.90;99.90;;;;;;5019232;28;19936;-66
2022/08/10 05:02:50;;;;;;;;;;;15.90;99.90;;;;;;5022207;28;19960;-66
2022/08/10 05:05:17;;;;;;;;;;;16.00;99.90;;;;;;5020971;28;19939;-66
2022/08/10 05:07:44;;;;;;;;;;;16.00;99.90;;;;;;5018577;28;20012;-66
2022/08/10 05:10:11;;;;;;;;;;;16.00;99.90;;;;;;5021232;28;20023;-66
2022/08/10 05:12:39;;;;;;;;;;;16.00;99.90;;;;;;5022118;28;19925;-67
2022/08/10 05:15:07;;;;;;;;;;;16.10;99.90;;;;;;5020816;28;19925;-66
2022/08/10 05:17:34;;;;;;;;;;;16.10;99.90;;;;;;5021780;28;19937;-66
2022/08/10 05:20:03;;;;;;;;;;;16.20;99.90;;;;;;5017520;28;19925;-66
2022/08/10 05:22:30;;;;;;;;;;;16.20;99.90;;;;;;5020776;28;19972;-67
2022/08/10 05:24:56;;;;;;;;;;;16.30;99.90;;;;;;5020575;28;20077;-66
2022/08/10 05:27:23;;;;;;;;;;;16.30;99.90;;;;;;5021292;28;19947;-65
2022/08/10 05:29:51;;;;;;;;;;;16.40;99.90;;;;;;5020687;28;19932;-65
2022/08/10 05:32:18;;;;;;;;;;;16.40;99.90;;;;;;5021921;28;19925;-66
2022/08/10 05:34:45;;;;;;;;;;;16.40;99.90;;;;;;5019793;28;20430;-66
2022/08/10 05:37:12;;;;;;;;;;;16.40;99.90;;;;;;5023892;28;20027;-66
2022/08/10 05:39:39;;;;;;;;;;;16.50;99.90;;;;;;5019079;28;19924;-66
2022/08/10 05:42:06;;;;;;;;;;;16.50;99.90;;;;;;5021619;28;19933;-67
2022/08/10 05:44:33;;;;;;;;;;;16.60;99.90;;;;;;5025301;28;19933;-67
2022/08/10 05:47:01;;;;;;;;;;;16.60;99.90;;;;;;5017449;28;19925;-67
2022/08/10 05:49:27;;;;;;;;;;;16.60;99.90;;;;;;5022719;28;19926;-67
2022/08/10 05:51:54;;;;;;;;;;;16.70;99.90;;;;;;5028346;28;19925;-65
2022/08/10 05:54:23;;;;;;;;;;;16.60;99.90;;;;;;5022468;28;20021;-66
2022/08/10 05:56:50;;;;;;;;;;;16.80;99.90;;;;;;5024611;28;20450;-66
2022/08/10 05:59:17;;;;;;;;;;;16.80;99.90;;;;;;5021980;28;20028;-66
2022/08/10 06:01:44;;;;;;;;;;;16.90;99.90;;;;;;5020933;28;19925;-67
2022/08/10 06:04:15;;;;;;;;;;;17.00;99.90;;;;;;5024702;28;20016;-66
2022/08/10 06:06:43;;;;;;;;;;;17.10;99.90;;;;;;5024533;28;20362;-66
2022/08/10 06:09:11;;;;;;;;;;;17.10;99.90;;;;;;5024020;28;19935;-67
2022/08/10 06:11:38;;;;;;;;;;;17.20;99.90;;;;;;5019618;28;19945;-67
2022/08/10 06:16:50;;;;;;;;;;;17.40;99.90;;;;;;5019953;28;19952;-67
2022/08/10 06:19:18;;;;;;;;;;;17.50;99.90;;;;;;5016772;28;19933;-67
2022/08/10 06:21:45;;;;;;;;;;;17.50;99.90;;;;;;5017915;28;19972;-67
2022/08/10 06:24:12;;;;;;;;;;;17.60;99.90;;;;;;5014740;28;20425;-67
2022/08/10 06:26:39;;;;;;;;;;;17.70;99.90;;;;;;5013494;28;19991;-67
2022/08/10 06:29:07;;;;;;;;;;;17.70;99.90;;;;;;5020456;28;20012;-67
2022/08/10 06:31:36;;;;;;;;;;;17.80;99.90;;;;;;5022085;28;19943;-67
2022/08/10 06:34:05;;;;;;;;;;;17.80;99.90;;;;;;5024068;28;20040;-67
2022/08/10 06:36:33;;;;;;;;;;;17.80;99.90;;;;;;5023804;28;19976;-67
2022/08/10 06:39:00;;;;;;;;;;;17.80;99.90;;;;;;5021703;28;20007;-67
2022/08/10 06:41:28;;;;;;;;;;;17.90;99.90;;;;;;5026223;28;20016;-67
2022/08/10 06:43:58;;;;;;;;;;;18.10;99.90;;;;;;5026124;28;19932;-67
2022/08/10 06:46:26;;;;;;;;;;;18.10;99.90;;;;;;5028690;28;20413;-67
2022/08/10 06:48:54;;;;;;;;;;;18.20;99.90;;;;;;5020680;28;19963;-68
2022/08/10 06:51:22;;;;;;;;;;;18.20;99.90;;;;;;5027292;28;19932;-67
2022/08/10 06:53:53;;;;;;;;;;;18.30;99.90;;;;;;5027373;28;19940;-65
2022/08/10 06:56:20;;;;;;;;;;;18.50;99.90;;;;;;5023432;28;19929;-66
2022/08/10 06:58:50;;;;;;;;;;;18.60;99.90;;;;;;5024310;28;19948;-65
2022/08/10 07:01:20;;;;;;;;;;;18.80;99.90;;;;;;5026843;28;19947;-66
2022/08/10 07:03:50;;;;;;;;;;;19.00;99.90;;;;;;5018992;28;19925;-65
2022/08/10 07:06:18;;;;;;;;;;;19.60;99.90;;;;;;5023597;28;20426;-66
2022/08/10 07:08:45;;;;;;;;;;;20.90;99.90;;;;;;5028337;28;23654;-64
2022/08/10 07:11:14;;;;;;;;;;;22.20;99.90;;;;;;5025072;28;19928;-66
2022/08/10 07:13:42;;;;;;;;;;;22.70;98.20;;;;;;5029912;28;19948;-66
2022/08/10 07:16:11;;;;;;;;;;;23.20;96.90;;;;;;5018071;28;20459;-66
2022/08/10 07:18:38;;;;;;;;;;;23.70;93.70;;;;;;5017912;28;19929;-67
2022/08/10 07:21:05;;;;;;;;;;;23.10;94.70;;;;;;5016087;28;19976;-66
2022/08/10 07:23:33;;;;;;;;;;;23.00;95.20;;;;;;5030180;28;20007;-66
2022/08/10 07:26:00;;;;;;;;;;;23.80;94.50;;;;;;5018944;28;20274;-66
2022/08/10 07:28:29;;;;;;;;;;;23.10;94.30;;;;;;5017966;28;20461;-65
2022/08/10 07:30:56;;;;;;;;;;;23.20;94.70;;;;;;5022336;28;19939;-66
2022/08/10 07:33:23;;;;;;;;;;;23.60;93.90;;;;;;5025452;28;19925;-65
2022/08/10 07:35:50;;;;;;;;;;;24.10;92.00;;;;;;5023693;28;20011;-66
2022/08/10 07:38:18;;;;;;;;;;;24.50;91.20;;;;;;5022536;28;19932;-66
2022/08/10 07:40:45;;;;;;;;;;;25.10;88.90;;;;;;5026815;28;19998;-67
2022/08/10 07:43:13;;;;;;;;;;;24.20;89.50;;;;;;5020714;28;20358;-68
2022/08/10 07:45:41;;;;;;;;;;;24.40;89.10;;;;;;5019728;28;19925;-67
2022/08/10 07:48:10;;;;;;;;;;;23.80;90.10;;;;;;5021416;28;19975;-67
2022/08/10 07:50:37;;;;;;;;;;;24.00;90.60;;;;;;5028732;28;20379;-67
2022/08/10 07:53:07;;;;;;;;;;;24.50;88.80;;;;;;5023899;28;19925;-67
2022/08/10 07:55:34;;;;;;;;;;;25.60;85.40;;;;;;5025808;28;19972;-68
2022/08/10 07:58:01;;;;;;;;;;;26.00;79.30;;;;;;5026443;28;20025;-67
2022/08/10 08:00:29;;;;;;;;;;;25.40;80.10;;;;;;5021972;28;20040;-67
2022/08/10 08:03:00;;;;;;;;;;;25.10;81.30;;;;;;5021737;28;19933;-65
2022/08/10 08:05:27;;;;;;;;;;;25.60;79.50;;;;;;5016073;28;19925;-66
2022/08/10 08:07:55;;;;;;;;;;;25.60;78.00;;;;;;5024058;28;20295;-67
2022/08/10 08:10:23;;;;;;;;;;;25.60;77.10;;;;;;5019710;28;19925;-67
2022/08/10 08:12:50;;;;;;;;;;;25.30;79.40;;;;;;5020198;28;19932;-68
2022/08/10 08:15:18;;;;;;;;;;;26.40;75.80;;;;;;5025227;28;19956;-68
2022/08/10 08:17:45;;;;;;;;;;;;;;;;;;5026368;28;20024;-67
2022/08/10 08:20:15;;;;;;;;;;;25.80;93.40;;;;;;5021904;28;20291;-65
2022/08/10 08:22:43;;;;;;;;;;;25.80;94.60;;;;;;5020039;28;20414;-66
2022/08/10 08:25:11;;;;;;;;;;;26.10;93.10;;;;;;5021012;28;19933;-66
2022/08/10 08:27:39;;;;;;;;;;;25.80;94.50;;;;;;5016487;28;20017;-66
2022/08/10 08:30:07;;;;;;;;;;;26.00;92.70;;;;;;5022703;28;20040;-66
2022/08/10 08:32:36;;;;;;;;;;;25.50;94.50;;;;;;5020704;28;19932;-67
2022/08/10 08:35:04;;;;;;;;;;;27.20;92.50;;;;;;5021799;28;19979;-66
2022/08/10 08:37:33;;;;;;;;;;;28.10;85.00;;;;;;5022763;28;19929;-66
2022/08/10 08:40:00;;;;;;;;;;;;;;;;;;5024861;28;19933;-66
2022/08/10 08:42:27;;;;;;;;;;;;;;;;;;5021246;28;19937;-66
2022/08/10 08:44:54;;;;;;;;;;;;;;;;;;5016209;28;19939;-65
2022/08/10 08:47:21;;;;;;;;;;;;;;;;;;5023612;28;20669;-66
2022/08/10 08:49:48;;;;;;;;;;;;;;;;;;5022065;28;19925;-66
2022/08/10 08:52:15;;;;;;;;;;;;;;;;;;5022917;28;19925;-66
2022/08/10 08:54:42;;;;;;;;;;;;;;;;;;5018769;28;20234;-67
2022/08/10 08:57:09;;;;;;;;;;;;;;;;;;5021861;28;20035;-67
2022/08/10 08:59:36;;;;;;;;;;;;;;;;;;5023965;28;19996;-66
2022/08/10 09:02:03;;;;;;;;;;;;;;;;;;5027627;28;20016;-66
2022/08/10 09:04:30;;;;;;;;;;;;;;;;;;5019965;28;19998;-66
2022/08/10 09:06:57;;;;;;;;;;;;;;;;;;5023275;28;19925;-65
2022/08/10 09:09:24;;;;;;;;;;;;;;;;;;5020467;28;20371;-66
2022/08/10 09:11:51;;;;;;;;;;;;;;;;;;5022066;28;19971;-66
2022/08/10 09:14:18;;;;;;;;;;;;;;;;;;5021065;28;19926;-66
2022/08/10 09:16:45;;;;;;;;;;;;;;;;;;5023794;28;20346;-66
2022/08/10 09:19:12;;;;;;;;;;;;;;;;;;5021062;28;19979;-66
2022/08/10 09:21:45;;;;;;;;;;;27.80;73.10;;;;;;5019699;28;20002;-66
2022/08/10 09:24:15;;;;;;;;;;;28.20;49.60;;;;;;5020981;28;20015;-67
2022/08/10 09:26:46;;;;;;;;;;;27.90;48.20;;;;;;5025982;28;19925;-67
2022/08/10 09:29:14;;;;;;;;;;;27.50;49.30;;;;;;5020878;28;19929;-67
2022/08/10 09:31:44;;;;;;;;;;;27.60;49.70;;;;;;5023159;28;19929;-66
2022/08/10 09:34:15;;;;;;;;;;;27.60;49.20;;;;;;5021396;28;19933;-67
2022/08/10 09:36:48;;;;;;;;;;;27.00;49.80;;;;;;5027088;28;20015;-66
2022/08/10 09:39:22;;;;;;;;;;;27.60;48.80;;;;;;5029056;28;20302;-66
2022/08/10 09:41:53;;;;;;;;;;;28.10;46.60;;;;;;5025132;28;19947;-66
2022/08/10 09:44:26;;;;;;;;;;;27.80;46.00;;;;;;5025220;28;20411;-66
2022/08/10 09:47:00;;;;;;;;;;;28.30;45.70;;;;;;5012026;28;19935;-66
2022/08/10 09:49:34;;;;;;;;;;;28.10;44.40;;;;;;5010511;28;20040;-65
2022/08/10 09:52:09;;;;;;;;;;;27.40;45.90;;;;;;5023026;28;19940;-66
2022/08/10 09:54:42;;;;;;;;;;;27.20;45.90;;;;;;5018866;28;19929;-66
2022/08/10 09:57:13;;;;;;;;;;;26.90;45.70;;;;;;5023095;28;19978;-66
2022/08/10 09:59:42;;;;;;;;;;;27.80;46.10;;;;;;5022447;28;20372;-66
2022/08/10 10:02:13;;;;;;;;;;;27.80;43.90;;;;;;5032606;28;19932;-66
2022/08/10 10:04:43;;;;;;;;;;;28.20;42.60;;;;;;5029893;28;19925;-66
2022/08/10 10:07:14;;;;;;;;;;;28.30;43.20;;;;;;5023496;28;20026;-67
2022/08/10 10:09:43;;;;;;;;;;;27.50;44.50;;;;;;5026489;28;19976;-67
2022/08/10 10:12:16;;;;;;;;;;;27.30;45.30;;;;;;5028627;28;20012;-65
2022/08/10 10:17:43;;;;;;;;;;;26.40;48.10;;;;;;5021674;28;19961;-66
2022/08/10 10:20:14;;;;;;;;;;;26.40;47.20;;;;;;5022023;28;19933;-67
2022/08/10 10:22:51;;;;;;;;;;;26.20;47.40;;;;;;5027122;28;19964;-66
2022/08/10 10:25:21;;;;;;;;;;;26.00;46.10;;;;;;5020566;28;19928;-66
2022/08/10 10:27:53;;;;;;;;;;;26.40;46.00;;;;;;5022443;28;19974;-66
2022/08/10 10:30:23;;;;;;;;;;;26.70;45.10;;;;;;5015979;28;19936;-67
2022/08/10 10:32:54;;;;;;;;;;;26.80;44.70;;;;;;5018524;28;19933;-67
2022/08/10 10:35:23;;;;;;;;;;;27.10;44.90;;;;;;5022815;28;19925;-67
2022/08/10 10:37:52;;;;;;;;;;;26.80;44.10;;;;;;5021783;28;19957;-66
2022/08/10 10:40:21;;;;;;;;;;;26.70;44.40;;;;;;5017159;28;19933;-66
2022/08/10 10:42:50;;;;;;;;;;;26.90;43.20;;;;;;5019535;28;20451;-68
2022/08/10 10:45:19;;;;;;;;;;;26.80;44.10;;;;;;5020805;28;19929;-67
2022/08/10 10:47:59;;;;;;;;;;;26.70;43.80;;;;;;5022359;28;19925;-67
2022/08/10 10:50:28;;;;;;;;;;;27.00;42.50;;;;;;5011890;28;19965;-66
2022/08/10 10:53:03;;;;;;;;;;;26.80;41.70;;;;;;5021081;28;19929;-65
2022/08/10 10:55:34;;;;;;;;;;;26.80;42.30;;;;;;5018851;28;19929;-66
2022/08/10 10:58:04;;;;;;;;;;;27.40;41.80;;;;;;5012241;28;19967;-66
2022/08/10 11:00:37;;;;;;;;;;;27.50;39.00;;;;;;5016031;28;19933;-66
2022/08/10 11:03:15;;;;;;;;;;;27.40;39.40;;;;;;5012451;28;20407;-67
2022/08/10 11:05:46;;;;;;;;;;;27.50;38.90;;;;;;5024797;28;19929;-67
2022/08/10 11:08:16;;;;;;;;;;;27.30;37.50;;;;;;5021504;28;20296;-65
2022/08/10 11:10:45;;;;;;;;;;;27.30;37.40;;;;;;5021984;28;20004;-66
2022/08/10 11:13:27;;;;;;;;;;;27.40;36.50;;;;;;5021317;28;19929;-67
2022/08/10 11:16:00;;;;;;;;;;;27.60;36.80;;;;;;5028236;28;20399;-66
2022/08/10 11:18:32;;;;;;;;;;;27.70;36.20;;;;;;5023595;28;19944;-65
2022/08/10 11:21:03;;;;;;;;;;;28.00;35.30;;;;;;5021966;28;20023;-66
2022/08/10 11:23:37;;;;;;;;;;;27.90;34.90;;;;;;5025926;28;20024;-66
2022/08/10 11:26:08;;;;;;;;;;;27.70;35.60;;;;;;5022982;28;19968;-67
2022/08/10 11:28:36;;;;;;;;;;;28.00;32.70;;;;;;5029474;28;20652;-67
2022/08/10 11:31:06;;;;;;;;;;;28.00;33.00;;;;;;5027983;28;19925;-66
2022/08/10 11:33:38;;;;;;;;;;;28.40;32.10;;;;;;5024508;28;19933;-66
2022/08/10 11:36:09;;;;;;;;;;;28.40;31.90;;;;;;5022639;28;19925;-67
2022/08/10 11:38:39;;;;;;;;;;;28.40;27.80;;;;;;5026809;28;19932;-66
2022/08/10 11:41:10;;;;;;;;;;;28.20;27.90;;;;;;5025466;28;19940;-65
2022/08/10 11:43:39;;;;;;;;;;;28.40;27.90;;;;;;5025719;28;19929;-66
2022/08/10 11:46:12;;;;;;;;;;;28.40;24.90;;;;;;5022991;28;19968;-66
2022/08/10 11:48:41;;;;;;;;;;;28.40;25.90;;;;;;5022177;28;22674;-66
2022/08/10 11:51:11;;;;;;;;;;;28.40;25.10;;;;;;5025667;28;19968;-66
2022/08/10 11:53:45;;;;;;;;;;;28.40;24.10;;;;;;5027838;28;19991;-66
2022/08/10 11:56:16;;;;;;;;;;;28.50;23.70;;;;;;5025014;28;19929;-66
2022/08/10 12:01:30;;;;;;;;;;;28.50;23.40;;;;;;5026340;28;20026;-67
2022/08/10 12:03:57;;;;;;;;;;;28.40;23.30;;;;;;5018963;28;20363;-66
2022/08/10 12:06:24;;;;;;;;;;;28.70;23.80;;;;;;5027839;28;20399;-66
2022/08/10 12:08:54;;;;;;;;;;;29.20;22.20;;;;;;5021155;28;19932;-67
2022/08/10 12:11:22;;;;;;;;;;;29.30;21.60;;;;;;5020429;28;20226;-67
2022/08/10 12:13:52;;;;;;;;;;;28.80;20.50;;;;;;5020698;28;19931;-66
2022/08/10 12:16:20;;;;;;;;;;;29.00;20.20;;;;;;5023057;28;20403;-67
2022/08/10 12:18:48;;;;;;;;;;;29.30;20.30;;;;;;5027209;28;20376;-66
2022/08/10 12:21:18;;;;;;;;;;;29.20;19.90;;;;;;5029601;28;19968;-67
2022/08/10 12:23:48;;;;;;;;;;;28.90;19.10;;;;;;5024142;28;19929;-67
2022/08/10 12:26:19;;;;;;;;;;;29.00;19.70;;;;;;5027857;28;19933;-66
2022/08/10 12:28:49;;;;;;;;;;;29.10;19.50;;;;;;5020462;28;19929;-66
2022/08/10 12:31:16;;;;;;;;;;;29.20;18.00;;;;;;5028392;28;20124;-66
2022/08/10 12:33:46;;;;;;;;;;;29.40;16.50;;;;;;5023176;28;19929;-66
2022/08/10 12:36:15;;;;;;;;;;;29.40;17.00;;;;;;5022337;28;20004;-66
2022/08/10 12:38:46;;;;;;;;;;;29.80;16.10;;;;;;5026251;28;20016;-66
2022/08/10 12:41:17;;;;;;;;;;;29.50;16.70;;;;;;5028544;28;19925;-65
2022/08/10 12:43:49;;;;;;;;;;;29.50;17.30;;;;;;5023919;28;20427;-65
2022/08/10 12:46:18;;;;;;;;;;;29.70;16.80;;;;;;5025712;28;20031;-66
2022/08/10 12:48:50;;;;;;;;;;;29.60;16.20;;;;;;5037832;28;20380;-66
2022/08/10 12:51:19;;;;;;;;;;;29.40;15.30;;;;;;5027804;28;20008;-65
2022/08/10 12:53:47;;;;;;;;;;;29.20;15.50;;;;;;5022669;28;19931;-65
2022/08/10 12:56:24;;;;;;;;;;;29.40;15.40;;;;;;5021966;28;20019;-65
2022/08/10 12:58:51;;;;;;;;;;;29.70;15.20;;;;;;5014357;28;20079;-66
2022/08/10 13:01:18;;;;;;;;;;;29.70;15.00;;;;;;5015142;28;20060;-65
2022/08/10 13:03:47;;;;;;;;;;;29.80;14.80;;;;;;5011263;28;20024;-65
2022/08/10 13:06:15;;;;;;;;;;;29.90;14.90;;;;;;5015324;28;19964;-65
2022/08/10 13:11:30;;;;;;;;;;;30.00;14.40;;;;;;5016064;28;20210;-66
2022/08/10 13:14:01;;;;;;;;;;;29.90;14.40;;;;;;5014182;28;20011;-66
2022/08/10 13:16:29;;;;;;;;;;;29.70;14.20;;;;;;5014052;28;19925;-65
2022/08/10 13:18:58;;;;;;;;;;;29.70;13.80;;;;;;5026139;28;19929;-66
2022/08/10 13:21:30;;;;;;;;;;;30.10;14.00;;;;;;5020748;28;20456;-65
2022/08/10 13:24:01;;;;;;;;;;;30.10;13.50;;;;;;5033984;28;20011;-66
2022/08/10 13:26:30;;;;;;;;;;;30.00;13.60;;;;;;5022786;28;19933;-65
2022/08/10 13:28:58;;;;;;;;;;;30.10;13.20;;;;;;5019936;28;19925;-66
2022/08/10 13:31:28;;;;;;;;;;;30.00;13.30;;;;;;5017844;28;19972;-65
2022/08/10 13:33:58;;;;;;;;;;;29.70;13.90;;;;;;5012272;28;20366;-65
2022/08/10 13:36:27;;;;;;;;;;;29.70;13.70;;;;;;5012998;28;20011;-65
2022/08/10 13:38:55;;;;;;;;;;;29.70;13.50;;;;;;5014754;28;20350;-64
2022/08/10 13:41:25;;;;;;;;;;;29.60;13.10;;;;;;5015252;28;20278;-65
2022/08/10 13:43:56;;;;;;;;;;;29.70;13.60;;;;;;5019876;28;19929;-65
2022/08/10 13:46:23;;;;;;;;;;;29.50;13.50;;;;;;5014227;28;20429;-66
2022/08/10 13:48:52;;;;;;;;;;;29.80;13.20;;;;;;5015555;28;20476;-64
2022/08/10 13:51:20;;;;;;;;;;;29.90;13.20;;;;;;5019081;28;20021;-64
2022/08/10 13:53:47;;;;;;;;;;;29.90;13.00;;;;;;5022159;28;19929;-66
2022/08/10 13:56:14;;;;;;;;;;;29.80;11.90;;;;;;5017375;28;20062;-67
2022/08/10 13:58:42;;;;;;;;;;;29.80;12.50;;;;;;5018207;28;21040;-66
2022/08/10 14:01:12;;;;;;;;;;;29.90;12.90;;;;;;5019712;28;19932;-66
2022/08/10 14:03:40;;;;;;;;;;;30.10;13.50;;;;;;5020260;28;20000;-66
2022/08/10 14:06:10;;;;;;;;;;;30.30;13.30;;;;;;5022504;28;20542;-66
2022/08/10 14:08:40;;;;;;;;;;;30.30;12.70;;;;;;5020428;28;19929;-65
2022/08/10 14:11:09;;;;;;;;;;;30.10;12.50;;;;;;5024785;28;19998;-65
2022/08/10 14:13:37;;;;;;;;;;;29.90;12.90;;;;;;5024700;28;19929;-67
2022/08/10 14:16:05;;;;;;;;;;;30.20;13.20;;;;;;5019083;28;20005;-64
2022/08/10 14:18:35;;;;;;;;;;;30.30;12.10;;;;;;5017007;28;19937;-65
2022/08/10 14:21:01;;;;;;;;;;;30.40;12.80;;;;;;5023843;28;20015;-65
2022/08/10 14:23:30;;;;;;;;;;;30.30;12.10;;;;;;5019644;28;20388;-66
2022/08/10 14:26:00;;;;;;;;;;;29.90;11.70;;;;;;5018623;28;19940;-66
2022/08/10 14:28:32;;;;;;;;;;;30.40;11.80;;;;;;5017584;28;19929;-66
2022/08/10 14:31:00;;;;;;;;;;;30.50;12.20;;;;;;5018928;28;19925;-66
2022/08/10 14:33:28;;;;;;;;;;;30.60;10.90;;;;;;5019522;28;20379;-66
2022/08/10 14:35:58;;;;;;;;;;;30.80;10.80;;;;;;5018572;28;20099;-66
2022/08/10 14:38:28;;;;;;;;;;;30.60;10.60;;;;;;5015391;28;21305;-66
2022/08/10 14:40:57;;;;;;;;;;;30.30;10.90;;;;;;5019904;28;20024;-66
2022/08/10 14:43:25;;;;;;;;;;;30.40;11.50;;;;;;5016713;28;20311;-66
2022/08/10 14:45:55;;;;;;;;;;;30.10;11.00;;;;;;5022570;28;20328;-66